Time;durP1;ratioP1;P1;durP2;ratioP2;P2;SDS_P1;SDS_P2;PMS_P1;PMS_P2;Temp;Humidity;BMP_temperature;BMP_pressure;BME280_temperature;BME280_humidity;BME280_pressure;Samples;Min_cycle;Max_cycle;Signal;HPM_P1;HPM_P2
2022/08/11 00:01:09;;;;;;;;;;;;;;;18.89;100.00;528.54;1669084;85;20485;-58
2022/08/11 00:03:36;;;;;;;;;;;;;;;18.88;100.00;359.70;1668997;84;20176;-58
2022/08/11 00:06:03;;;;;;;;;;;;;;;18.87;100.00;2216.40;1614192;87;21123;-58
2022/08/11 00:08:30;;;;;;;;;;;;;;;18.87;100.00;2216.40;1614338;87;20490;-58
2022/08/11 00:11:00;;;;;;;;;;;;;;;18.90;100.00;1034.96;1649363;85;20188;-59
2022/08/11 00:13:37;;;;;;;;;;;;;;;18.92;100.00;-1158.54;1668500;85;20196;-59
2022/08/11 00:16:06;;;;;;;;;;;;;;;18.95;100.00;-2507.66;1669554;86;20147;-59
2022/08/11 00:18:44;;;;;;;;;;;;;;;18.99;100.00;-5373.03;1653883;85;21210;-59
2022/08/11 00:21:11;;;;;;;;;;;;;;;19.02;100.00;-8404.55;1688831;84;20167;-59
2022/08/11 00:23:43;;;;;;;;;;;;;;;19.05;100.00;-11097.16;1688622;84;20468;-59
2022/08/11 00:26:10;;;;;;;;;;;;;;;19.11;100.00;-13788.18;1688221;83;20183;-59
2022/08/11 00:28:37;;;;;;;;;;;;;;;19.15;100.00;-16141.32;1688644;84;20207;-58
2022/08/11 00:31:05;;;;;;;;;;;;;;;19.21;100.00;-17989.59;1689153;85;21148;-58
2022/08/11 00:33:35;;;;;;;;;;;;;;;19.25;100.00;-19836.86;1688565;84;20217;-58
2022/08/11 00:36:02;;;;;;;;;;;;;;;19.28;100.00;-21179.97;1689047;83;20178;-58
2022/08/11 00:38:32;;;;;;;;;;;;;;;19.30;100.00;-22354.41;1688519;83;21731;-59
2022/08/11 00:41:11;;;;;;;;;;;;;;;19.32;100.00;-23361.00;1689168;83;20142;-58
2022/08/11 00:43:50;;;;;;;;;;;;;;;19.34;100.00;-23697.87;1688488;85;22112;-59
2022/08/11 00:46:30;;;;;;;;;;;;;;;19.31;100.00;-23697.10;1688965;84;20199;-58
2022/08/11 00:49:12;;;;;;;;;;;;;;;19.31;100.00;-23696.94;1688521;85;20175;-71
2022/08/11 00:52:05;;;;;;;;;;;;;;;19.30;100.00;-23696.63;1688017;84;20503;-71
2022/08/11 00:54:44;;;;;;;;;;;;;;;19.30;100.00;-23696.63;1688732;85;20227;-58
2022/08/11 00:57:48;;;;;;;;;;;;;;;19.29;100.00;-23696.32;1687266;85;21255;-58
2022/08/11 01:00:16;;;;;;;;;;;;;;;19.25;100.00;-23695.09;1688793;83;20211;-58
2022/08/11 01:02:52;;;;;;;;;;;;;;;19.21;100.00;-23694.01;1688805;85;20195;-58
2022/08/11 01:05:26;;;;;;;;;;;;;;;19.17;100.00;-23692.93;1683711;84;20185;-58
2022/08/11 01:08:16;;;;;;;;;;;;;;;19.16;100.00;-23692.46;1674272;84;20194;-58
2022/08/11 01:11:14;;;;;;;;;;;;;;;19.14;100.00;-23691.84;1676631;84;21863;-70
2022/08/11 01:14:05;;;;;;;;;;;;;;;19.10;100.00;-23690.76;1703327;83;20479;-58
2022/08/11 01:16:51;;;;;;;;;;;;;;;19.08;100.00;-23690.14;1703475;84;20199;-58
2022/08/11 01:19:44;;;;;;;;;;;;;;;19.07;100.00;-23689.68;1689239;83;20451;-71
2022/08/11 01:22:46;;;;;;;;;;;;;;;19.02;100.00;-23688.29;1675568;85;20236;-71
2022/08/11 01:25:49;;;;;;;;;;;;;;;18.94;100.00;-23685.96;1674367;85;21236;-71
2022/08/11 01:28:54;;;;;;;;;;;;;;;18.89;100.00;-23684.57;1675192;85;20204;-72
2022/08/11 01:31:44;;;;;;;;;;;;;;;18.87;100.00;-23683.95;1675483;85;20187;-71
2022/08/11 01:34:19;;;;;;;;;;;;;;;18.85;100.00;-23683.33;1675332;85;20220;-71
2022/08/11 01:37:07;;;;;;;;;;;;;;;18.89;100.00;-23684.57;1675477;85;20179;-71
2022/08/11 01:39:49;;;;;;;;;;;;;;;18.90;100.00;-23684.88;1675174;85;23157;-71
2022/08/11 01:45:40;;;;;;;;;;;;;;;18.86;100.00;-23683.49;1611737;85;20537;-59
2022/08/11 01:48:28;;;;;;;;;;;;;;;18.84;100.00;-23683.02;1675505;85;20194;-58
2022/08/11 01:51:16;;;;;;;;;;;;;;;18.86;100.00;-23683.49;1675313;85;20200;-59
2022/08/11 01:53:53;;;;;;;;;;;;;;;18.86;100.00;-23683.49;1674051;85;20727;-58
2022/08/11 01:56:39;;;;;;;;;;;;;;;18.89;100.00;-23684.42;1675364;85;20184;-58
2022/08/11 01:59:15;;;;;;;;;;;;;;;18.91;100.00;-23685.04;1675534;85;20208;-58
2022/08/11 02:02:14;;;;;;;;;;;;;;;18.91;100.00;-23685.04;1669089;85;20476;-57
2022/08/11 02:04:53;;;;;;;;;;;;;;;18.88;100.00;-23684.26;1673141;85;20258;-58
2022/08/11 02:07:27;;;;;;;;;;;;;;;18.88;100.00;-23684.11;1644500;86;21260;-58
2022/08/11 02:11:29;;;;;;;;;;;;;;;18.88;100.00;-23684.26;1592762;87;20487;-60
2022/08/11 02:12:48;;;;;;;;;;;;;;;18.85;100.00;-23683.33;1683278;84;20229;-59
2022/08/11 02:15:28;;;;;;;;;;;;;;;18.85;100.00;-23683.33;1684966;85;20211;-59
2022/08/11 02:18:04;;;;;;;;;;;;;;;18.85;100.00;-23683.33;1683591;85;20222;-58
2022/08/11 02:23:40;;;;;;;;;;;;;;;18.85;100.00;-23683.33;1665939;85;20176;-58
2022/08/11 02:26:24;;;;;;;;;;;;;;;18.83;100.00;-23682.71;1635492;85;20191;-58
2022/08/11 02:29:04;;;;;;;;;;;;;;;18.82;100.00;-23682.41;1669251;85;20152;-58
2022/08/11 02:34:55;;;;;;;;;;;;;;;18.81;100.00;-23680.96;1668921;85;21208;-58
2022/08/11 02:37:28;;;;;;;;;;;;;;;18.76;100.00;-23009.58;1669111;84;20148;-58
2022/08/11 02:40:01;;;;;;;;;;;;;;;18.78;100.00;-23345.20;1669414;84;20172;-58
2022/08/11 02:42:47;;;;;;;;;;;;;;;18.78;100.00;-23010.18;1668826;85;20212;-59
2022/08/11 02:45:20;;;;;;;;;;;;;;;18.78;100.00;-22842.66;1669618;85;20156;-58
2022/08/11 02:51:20;;;;;;;;;;;;;;;18.77;100.00;-21837.05;1669386;85;20200;-58
2022/08/11 02:54:11;;;;;;;;;;;;;;;18.78;100.00;-21334.55;1669169;85;20228;-59
2022/08/11 02:56:51;;;;;;;;;;;;;;;18.77;100.00;-20496.15;1669289;86;20123;-59
2022/08/11 03:02:23;;;;;;;;;;;;;;;18.72;100.00;-17308.36;1641950;85;21268;-59
2022/08/11 03:05:19;;;;;;;;;;;;;;;18.72;100.00;-17643.84;1659030;86;20213;-59
2022/08/11 03:08:06;;;;;;;;;;;;;;;18.70;100.00;-16972.25;1655111;86;20181;-57
2022/08/11 03:16:44;;;;;;;;;;;;;;;18.70;100.00;-13110.32;1685937;84;21765;-71
2022/08/11 03:19:27;;;;;;;;;;;;;;;18.73;100.00;-11766.31;1674586;85;20200;-69
2022/08/11 03:22:17;;;;;;;;;;;;;;;18.77;100.00;-10253.54;1673977;85;20144;-71
2022/08/11 03:25:02;;;;;;;;;;;;;;;18.78;100.00;-6888.31;1615151;87;20505;-71
2022/08/11 03:27:35;;;;;;;;;;;;;;;18.80;100.00;1371.55;1662296;85;20211;-70
2022/08/11 03:30:31;;;;;;;;;;;;;;;18.84;100.00;6946.94;1674692;85;21124;-71
2022/08/11 03:36:18;;;;;;;;;;;;;;;18.88;100.00;54462.36;1674483;84;20151;-71
2022/08/11 03:39:04;;;;;;;;;;;;;;;18.89;100.00;83053.84;1674268;85;20179;-71
2022/08/11 03:41:55;;;;;;;;;;;;;;;18.93;100.00;89291.37;1674551;84;20187;-70
2022/08/11 03:44:40;;;;;;;;;;;;;;;18.95;100.00;124825.55;1674335;84;21095;-70
2022/08/11 03:47:14;;;;;;;;;;;;;;;18.98;100.00;152423.11;1674564;85;20135;-59
2022/08/11 03:50:06;;;;;;;;;;;;;;;19.00;100.00;151211.44;1674395;84;20179;-59
2022/08/11 03:52:54;;;;;;;;;;;;;;;19.04;100.00;152197.56;1674242;85;20211;-59
2022/08/11 03:55:59;;;;;;;;;;;;;;;19.06;100.00;152444.02;1674247;85;20453;-58
2022/08/11 03:58:30;;;;;;;;;;;;;;;19.14;100.00;147506.30;1674344;84;21137;-58
2022/08/11 04:01:36;;;;;;;;;;;;;;;19.20;100.00;152477.97;1674665;84;20574;-57
2022/08/11 04:04:25;;;;;;;;;;;;;;;19.24;100.00;152488.41;1674852;84;20131;-58
2022/08/11 04:07:19;;;;;;;;;;;;;;;19.26;100.00;152493.63;1662887;85;20166;-58
2022/08/11 04:09:53;;;;;;;;;;;;;;;19.27;100.00;152496.23;1662415;86;20181;-58
2022/08/11 04:12:40;;;;;;;;;;;;;;;19.27;100.00;152497.56;1679875;84;21212;-58
2022/08/11 04:18:21;;;;;;;;;;;;;;;19.36;100.00;152519.77;1682534;85;20186;-59
2022/08/11 04:21:11;;;;;;;;;;;;;;;19.44;100.00;152540.64;1671528;85;20425;-57
2022/08/11 04:23:51;;;;;;;;;;;;;;;19.51;100.00;152556.28;1670726;85;20204;-58
2022/08/11 04:26:49;;;;;;;;;;;;;;;19.65;100.00;152592.86;1670674;85;22246;-58
2022/08/11 04:29:28;;;;;;;;;;;;;;;19.75;100.00;152617.67;1670985;86;20203;-57
2022/08/11 04:32:19;;;;;;;;;;;;;;;19.88;100.00;152650.31;1671139;86;20145;-58
2022/08/11 04:35:01;;;;;;;;;;;;;;;19.99;100.00;152679.08;1637805;85;20172;-58
2022/08/11 04:37:45;;;;;;;;;;;;;;;20.08;100.00;152700.00;1670636;86;20219;-58
2022/08/11 04:40:28;;;;;;;;;;;;;;;20.09;100.00;152702.61;1671541;84;22769;-58
2022/08/11 04:45:50;;;;;;;;;;;;;;;20.12;100.00;152710.44;1671120;85;20115;-59
2022/08/11 05:03:02;;;;;;;;;;;;;;;20.28;100.00;152752.25;1670644;85;20152;-58
2022/08/11 05:05:49;;;;;;;;;;;;;;;20.30;100.00;152757.47;1648398;86;20190;-58
2022/08/11 05:08:55;;;;;;;;;;;;;;;20.36;100.00;152770.53;1645377;85;21157;-59
2022/08/11 05:11:43;;;;;;;;;;;;;;;20.41;100.00;152783.58;1639260;87;20312;-58
2022/08/11 05:36:50;;;;;;;;;;;;;;;20.97;100.00;152926.03;1669061;85;21224;-58
2022/08/11 05:56:19;;;;;;;;;;;;;;;21.67;100.00;153102.56;1648189;86;20193;-70
2022/08/11 05:58:46;;;;;;;;;;;;;;;21.84;100.00;153144.42;1648049;84;20382;-71
2022/08/11 06:01:16;;;;;;;;;;;;;;;21.98;100.00;153181.00;1648335;86;20518;-71
2022/08/11 06:06:29;;;;;;;;;;;;;;;22.24;99.77;153246.44;1646821;86;20191;-71
2022/08/11 06:08:56;;;;;;;;;;;;;;;22.35;98.79;153272.56;1644896;85;20432;-71
2022/08/11 06:11:23;;;;;;;;;;;;;;;22.38;98.32;153280.41;1648042;86;20450;-70
2022/08/11 06:13:51;;;;;;;;;;;;;;;22.43;98.46;153293.47;1648990;85;20221;-70
2022/08/11 06:16:22;;;;;;;;;;;;;;;22.47;98.63;153304.03;1647264;87;21251;-71
2022/08/11 06:18:49;;;;;;;;;;;;;;;22.52;98.00;153315.77;1650707;85;20185;-71
2022/08/11 06:21:17;;;;;;;;;;;;;;;22.57;100.00;153328.88;1626801;86;20692;-69
2022/08/11 06:23:44;;;;;;;;;;;;;;;22.63;100.00;153343.23;1649398;86;20497;-70
2022/08/11 06:26:12;;;;;;;;;;;;;;;22.63;92.20;153343.23;1648974;86;20503;-71
2022/08/11 06:28:43;;;;;;;;;;;;;;;22.57;94.15;153330.16;1648804;86;21224;-70
2022/08/11 06:31:18;;;;;;;;;;;;;;;22.60;95.58;153336.72;1649419;85;20201;-70
2022/08/11 06:34:14;;;;;;;;;;;;;;;22.63;94.36;153343.23;1649276;85;20188;-58
2022/08/11 06:36:44;;;;;;;;;;;;;;;22.71;96.41;153365.47;1648317;86;20701;-59
2022/08/11 06:39:30;;;;;;;;;;;;;;;22.95;96.79;153424.38;1650297;86;20183;-58
2022/08/11 06:42:06;;;;;;;;;;;;;;;23.14;91.41;153474.11;1651124;85;21138;-58
2022/08/11 06:44:40;;;;;;;;;;;;;;;23.22;92.76;153493.73;1648469;87;20209;-58
2022/08/11 06:47:08;;;;;;;;;;;;;;;23.30;91.83;153514.72;1650116;85;20169;-57
2022/08/11 06:52:28;;;;;;;;;;;;;;;23.45;92.21;153552.66;1652366;84;20216;-58
2022/08/11 06:55:05;;;;;;;;;;;;;;;23.57;93.14;153582.75;1649262;85;21311;-58
2022/08/11 07:00:28;;;;;;;;;;;;;;;23.64;89.47;153599.78;1649432;85;20217;-58
2022/08/11 07:03:02;;;;;;;;;;;;;;;23.64;85.49;153599.78;1653930;85;20514;-58
2022/08/11 07:05:48;;;;;;;;;;;;;;;23.64;85.00;153598.44;1648516;86;20204;-59
2022/08/11 07:17:37;;;;;;;;;;;;;;;23.32;83.01;153519.94;1651703;85;20201;-58
2022/08/11 07:31:16;;;;;;;;;;;;;;;22.95;83.12;153424.38;1651038;85;21196;-58
2022/08/11 07:33:49;;;;;;;;;;;;;;;22.90;82.78;153412.59;1650151;86;20481;-58
2022/08/11 07:36:15;;;;;;;;;;;;;;;22.86;82.97;153403.41;1647213;86;22137;-58
2022/08/11 07:38:45;;;;;;;;;;;;;;;22.89;83.73;153409.97;1648435;85;20488;-58
2022/08/11 07:41:14;;;;;;;;;;;;;;;22.89;83.06;153411.30;1648640;85;20446;-60
2022/08/11 07:43:41;;;;;;;;;;;;;;;22.95;84.15;153424.38;1650516;85;20222;-59
2022/08/11 07:54:23;;;;;;;;;;;;;;;23.08;86.04;153457.08;1648356;86;20214;-58
2022/08/11 07:56:50;;;;;;;;;;;;;;;23.15;86.34;153475.39;1649413;86;20683;-58
2022/08/11 08:18:37;;;;;;;;;;;;;;;23.42;82.72;153544.81;1651500;85;20249;-59
2022/08/11 08:21:10;;;;;;;;;;;;;;;23.48;80.93;153559.22;1655824;85;32464;-58
2022/08/11 08:23:38;;;;;;;;;;;;;;;23.51;81.78;153565.72;1654269;85;20816;-71
2022/08/11 08:30:46;;;;;;;;;;;;;;;23.56;80.97;153578.86;1651593;85;21254;-58
2022/08/11 08:31:24;;;;;;;;;;;;;;;23.55;83.66;153576.23;1654978;85;20212;-58
2022/08/11 08:33:51;;;;;;;;;;;;;;;23.63;83.00;153597.16;1648585;85;21004;-58
2022/08/11 08:36:19;;;;;;;;;;;;;;;23.64;83.00;153599.78;1652676;86;20535;-59
2022/08/11 08:38:52;;;;;;;;;;;;;;;23.64;81.03;153599.78;1665398;84;20188;-59
2022/08/11 08:41:27;;;;;;;;;;;;;;;23.59;82.16;153586.70;1654500;85;21221;-69
2022/08/11 08:43:56;;;;;;;;;;;;;;;23.61;81.61;153591.94;1657605;85;20450;-72
2022/08/11 08:46:25;;;;;;;;;;;;;;;23.57;80.96;153582.75;1654609;85;20696;-58
2022/08/11 08:48:52;;;;;;;;;;;;;;;23.52;81.98;153568.34;1656659;86;20522;-71
2022/08/11 08:51:34;;;;;;;;;;;;;;;23.58;83.81;153584.09;1657387;85;20184;-70
2022/08/11 08:54:10;;;;;;;;;;;;;;;23.66;81.78;153605.02;1657514;85;21138;-58
2022/08/11 08:56:39;;;;;;;;;;;;;;;23.66;79.94;153603.73;1658752;85;20219;-58
2022/08/11 08:59:05;;;;;;;;;;;;;;;23.55;80.72;153577.52;1657213;85;20197;-58
2022/08/11 09:01:41;;;;;;;;;;;;;;;23.51;82.01;153567.06;1655564;85;20191;-58
2022/08/11 09:04:08;;;;;;;;;;;;;;;23.56;81.86;153578.86;1661098;85;20172;-58
2022/08/11 09:06:38;;;;;;;;;;;;;;;23.61;82.18;153591.94;1658795;85;21238;-59
2022/08/11 09:09:07;;;;;;;;;;;;;;;23.64;81.38;153599.78;1659146;85;20200;-59
2022/08/11 09:11:54;;;;;;;;;;;;;;;23.70;80.42;153614.19;1658687;85;20215;-58
2022/08/11 09:14:59;;;;;;;;;;;;;;;23.72;80.83;153620.70;1657627;85;20640;-58
2022/08/11 09:16:57;;;;;;;;;;;;;;;23.76;81.04;153629.87;1653825;85;20164;-58
2022/08/11 09:19:24;;;;;;;;;;;;;;;23.85;81.15;153653.42;1658311;85;22177;-58
2022/08/11 09:27:22;;;;;;;;;;;;;;;23.85;81.23;153652.14;1652124;86;20243;-58
2022/08/11 09:29:49;;;;;;;;;;;;;;;24.01;78.47;153694.09;1649420;85;20193;-58
2022/08/11 09:32:20;;;;;;;;;;;;;;;24.00;78.88;153691.44;1650299;85;21238;-58
2022/08/11 09:34:48;;;;;;;;;;;;;;;24.04;78.54;153700.61;1649801;86;20204;-58
2022/08/11 09:45:30;;;;;;;;;;;;;;;24.28;76.79;153760.84;1650323;85;21295;-58
2022/08/11 09:47:57;;;;;;;;;;;;;;;24.27;77.26;153759.56;1651575;85;20193;-57
2022/08/11 09:50:24;;;;;;;;;;;;;;;24.37;77.45;153783.11;1648842;86;20453;-59
2022/08/11 09:52:50;;;;;;;;;;;;;;;24.42;77.02;153796.19;1650425;86;20759;-58
2022/08/11 09:55:17;;;;;;;;;;;;;;;24.53;77.44;153823.69;1650402;86;20262;-59
2022/08/11 10:00:36;;;;;;;;;;;;;;;24.72;76.65;153872.19;1649793;86;20176;-59
2022/08/11 10:03:06;;;;;;;;;;;;;;;24.69;75.92;153864.33;1648973;85;20168;-59
2022/08/11 10:08:20;;;;;;;;;;;;;;;24.71;75.33;153869.56;1649180;86;20629;-73
2022/08/11 10:10:47;;;;;;;;;;;;;;;24.57;75.66;153834.20;1651693;85;21125;-72
2022/08/11 10:13:17;;;;;;;;;;;;;;;24.40;76.77;153792.28;1683208;83;20209;-72
2022/08/11 10:15:45;;;;;;;;;;;;;;;24.37;78.21;153783.11;1653520;83;20441;-72
2022/08/11 10:21:04;;;;;;;;;;;;;;;24.36;77.21;153780.50;1654687;86;20648;-72
2022/08/11 10:33:58;;;;;;;;;;;;;;;24.41;78.22;153793.56;1652400;85;20201;-72
2022/08/11 10:34:17;;;;;;;;;;;;;;;24.45;78.59;153805.38;1645511;86;20507;-71
2022/08/11 10:36:47;;;;;;;;;;;;;;;24.49;77.65;153814.56;1647863;86;21225;-71
2022/08/11 10:39:15;;;;;;;;;;;;;;;24.50;77.74;153817.17;1647961;86;20493;-71
2022/08/11 10:44:33;;;;;;;;;;;;;;;24.61;78.63;153845.95;1648137;86;20447;-73
2022/08/11 10:51:11;;;;;;;;;;;;;;;24.69;77.21;153864.33;1649892;85;21136;-72
2022/08/11 11:00:29;;;;;;;;;;;;;;;24.60;76.65;153843.34;1650010;85;20205;-72
2022/08/11 11:03:16;;;;;;;;;;;;;;;24.61;76.25;153845.95;1651089;85;21126;-72
2022/08/11 11:05:43;;;;;;;;;;;;;;;24.64;75.48;153851.19;1634448;85;20285;-73
2022/08/11 11:11:00;;;;;;;;;;;;;;;24.54;77.27;153826.36;1654734;85;20192;-72
2022/08/11 11:17:54;;;;;;;;;;;;;;;24.50;79.69;153817.17;1641903;85;21201;-71
2022/08/11 11:18:51;;;;;;;;;;;;;;;24.46;78.90;153806.70;1636730;85;20249;-72
2022/08/11 11:21:18;;;;;;;;;;;;;;;24.32;78.72;153772.64;1634191;84;20461;-72
2022/08/11 11:23:57;;;;;;;;;;;;;;;24.23;80.08;153749.09;1639067;85;20544;-72
2022/08/11 11:26:55;;;;;;;;;;;;;;;24.16;80.78;153730.72;1630285;85;20215;-72
2022/08/11 11:29:29;;;;;;;;;;;;;;;24.08;81.99;153711.08;1646715;84;21184;-71
2022/08/11 11:32:14;;;;;;;;;;;;;;;23.98;83.58;153684.88;1640242;85;20825;-72
2022/08/11 11:34:44;;;;;;;;;;;;;;;23.91;84.36;153666.56;1641402;85;20205;-72
2022/08/11 11:37:12;;;;;;;;;;;;;;;23.84;85.17;153650.81;1648837;85;21094;-72
2022/08/11 11:39:38;;;;;;;;;;;;;;;23.81;86.08;153641.69;1648137;85;20537;-72
2022/08/11 11:42:06;;;;;;;;;;;;;;;23.78;86.98;153633.83;1648625;85;21228;-72
2022/08/11 11:44:34;;;;;;;;;;;;;;;23.71;87.25;153618.09;1651560;85;20182;-72
2022/08/11 11:47:00;;;;;;;;;;;;;;;23.66;85.57;153605.02;1641486;85;20222;-73
2022/08/11 11:49:28;;;;;;;;;;;;;;;23.65;85.72;153602.39;1643182;85;20484;-72
2022/08/11 11:51:55;;;;;;;;;;;;;;;23.65;85.54;153602.39;1641446;85;20472;-73
2022/08/11 11:54:25;;;;;;;;;;;;;;;23.67;86.37;153607.62;1660320;85;21164;-72
2022/08/11 11:56:52;;;;;;;;;;;;;;;23.69;86.21;153612.86;1654177;85;20268;-73
2022/08/11 12:02:07;;;;;;;;;;;;;;;23.71;85.84;153618.09;1644379;85;20686;-72
2022/08/11 12:04:35;;;;;;;;;;;;;;;23.72;86.67;153620.70;1651857;85;20233;-72
2022/08/11 12:09:48;;;;;;;;;;;;;;;23.75;86.33;153627.27;1650621;84;20625;-72
2022/08/11 12:14:59;;;;;;;;;;;;;;;23.74;86.83;153624.66;1657820;85;20174;-72
2022/08/11 12:17:26;;;;;;;;;;;;;;;23.74;86.98;153624.66;1657372;85;20211;-71
2022/08/11 12:19:53;;;;;;;;;;;;;;;23.71;87.67;153616.81;1656070;85;21253;-73
2022/08/11 12:27:54;;;;;;;;;;;;;;;23.47;89.30;153556.59;1659944;85;20253;-73
2022/08/11 12:30:21;;;;;;;;;;;;;;;23.38;90.01;153534.34;1649218;85;20233;-72
2022/08/11 12:32:47;;;;;;;;;;;;;;;23.32;90.41;153519.94;1649525;85;22131;-72
2022/08/11 12:35:14;;;;;;;;;;;;;;;23.29;91.20;153510.77;1655616;85;20230;-73
2022/08/11 12:37:47;;;;;;;;;;;;;;;23.27;91.78;153506.86;1659315;85;20163;-72
2022/08/11 12:45:51;;;;;;;;;;;;;;;23.28;92.54;153509.48;1647129;85;21780;-72
2022/08/11 12:54:07;;;;;;;;;;;;;;;23.16;92.03;153479.33;1648855;85;20412;-59
2022/08/11 13:05:05;;;;;;;;;;;;;;;23.13;91.59;153471.48;1652229;85;20188;-72
2022/08/11 13:07:32;;;;;;;;;;;;;;;23.20;91.72;153487.17;1650352;85;20767;-72
2022/08/11 13:10:00;;;;;;;;;;;;;;;23.27;91.17;153505.53;1652429;85;20220;-72
2022/08/11 13:15:14;;;;;;;;;;;;;;;23.36;90.35;153529.11;1655436;85;21266;-72
2022/08/11 13:17:43;;;;;;;;;;;;;;;23.42;90.44;153544.81;1657419;85;20225;-57
2022/08/11 13:20:11;;;;;;;;;;;;;;;23.49;89.37;153561.83;1653098;85;20181;-58
2022/08/11 13:22:40;;;;;;;;;;;;;;;23.57;88.37;153581.47;1663200;85;20178;-57
2022/08/11 13:25:07;;;;;;;;;;;;;;;23.64;87.54;153599.78;1651598;85;21242;-58
2022/08/11 13:27:35;;;;;;;;;;;;;;;23.71;87.33;153616.81;1635063;86;20130;-59
2022/08/11 13:32:47;;;;;;;;;;;;;;;23.84;85.70;153649.53;1655778;85;20207;-58
2022/08/11 13:35:14;;;;;;;;;;;;;;;23.90;85.79;153665.22;1652641;85;20470;-58
2022/08/11 13:37:43;;;;;;;;;;;;;;;23.95;85.23;153678.31;1652394;85;21153;-59
2022/08/11 13:40:11;;;;;;;;;;;;;;;23.99;85.02;153688.81;1654526;85;20371;-72
2022/08/11 13:42:38;;;;;;;;;;;;;;;24.00;83.82;153691.44;1661983;85;20199;-72
2022/08/11 13:45:06;;;;;;;;;;;;;;;24.00;84.12;153691.44;1653369;85;20150;-72
2022/08/11 13:47:34;;;;;;;;;;;;;;;24.03;84.23;153698.00;1650294;85;20289;-72
2022/08/11 13:50:00;;;;;;;;;;;;;;;24.09;84.45;153712.41;1655490;85;21152;-72
2022/08/11 13:52:27;;;;;;;;;;;;;;;24.16;83.60;153730.72;1650270;85;20208;-72
2022/08/11 13:54:54;;;;;;;;;;;;;;;24.18;83.33;153735.95;1657406;85;20514;-72
2022/08/11 13:57:20;;;;;;;;;;;;;;;24.20;83.18;153741.19;1658334;85;20540;-72
2022/08/11 13:59:49;;;;;;;;;;;;;;;24.22;83.14;153746.47;1683003;83;20172;-71
2022/08/11 14:02:16;;;;;;;;;;;;;;;24.26;83.11;153756.94;1685316;83;21312;-72
2022/08/11 14:04:47;;;;;;;;;;;;;;;24.28;82.75;153762.17;1660719;84;20233;-71
2022/08/11 14:07:18;;;;;;;;;;;;;;;24.32;82.58;153772.64;1649098;85;20532;-71
2022/08/11 14:09:45;;;;;;;;;;;;;;;24.38;82.39;153787.06;1648350;84;20458;-72
2022/08/11 14:15:03;;;;;;;;;;;;;;;24.47;82.36;153809.33;1647274;85;21128;-71
2022/08/11 14:17:31;;;;;;;;;;;;;;;24.58;81.85;153838.11;1638585;85;20224;-71
2022/08/11 14:19:58;;;;;;;;;;;;;;;24.63;81.49;153848.58;1648657;85;20660;-71
2022/08/11 14:22:24;;;;;;;;;;;;;;;24.60;81.45;153843.34;1651992;84;20527;-71
2022/08/11 14:24:51;;;;;;;;;;;;;;;24.61;81.59;153845.95;1650908;85;20222;-71
2022/08/11 14:27:22;;;;;;;;;;;;;;;24.59;81.68;153839.44;1650131;85;21257;-71
2022/08/11 14:29:47;;;;;;;;;;;;;;;24.60;81.88;153843.34;1643384;85;20262;-73
2022/08/11 14:32:13;;;;;;;;;;;;;;;24.61;81.85;153845.95;1652967;85;20193;-59
2022/08/11 14:34:42;;;;;;;;;;;;;;;24.60;81.26;153843.34;1642978;85;20522;-59
2022/08/11 14:37:14;;;;;;;;;;;;;;;24.57;82.02;153834.20;1643005;85;20201;-59
2022/08/11 14:39:49;;;;;;;;;;;;;;;24.59;82.17;153839.44;1636454;85;21134;-59
2022/08/11 14:47:53;;;;;;;;;;;;;;;24.66;82.48;153857.77;1635301;85;20152;-72
2022/08/11 14:50:22;;;;;;;;;;;;;;;24.69;82.11;153864.33;1655543;85;20488;-72
2022/08/11 14:52:53;;;;;;;;;;;;;;;24.64;81.93;153851.19;1647138;85;21223;-72
2022/08/11 14:58:08;;;;;;;;;;;;;;;24.49;82.44;153814.56;1637371;86;20406;-71
2022/08/11 15:00:36;;;;;;;;;;;;;;;24.41;82.74;153793.56;1659079;85;20199;-72
2022/08/11 15:03:09;;;;;;;;;;;;;;;24.35;83.01;153777.88;1640923;85;20183;-72
2022/08/11 15:05:40;;;;;;;;;;;;;;;24.30;83.37;153767.41;1650040;85;21253;-71
2022/08/11 15:08:07;;;;;;;;;;;;;;;24.30;83.57;153766.08;1659835;85;20383;-71
2022/08/11 15:10:35;;;;;;;;;;;;;;;24.32;83.42;153772.64;1670454;85;20223;-72
2022/08/11 15:13:02;;;;;;;;;;;;;;;24.32;83.31;153772.64;1666493;85;20661;-71
2022/08/11 15:18:17;;;;;;;;;;;;;;;24.39;83.66;153788.34;1667621;85;21210;-71
2022/08/11 15:26:17;;;;;;;;;;;;;;;24.43;83.73;153798.86;1669444;86;20425;-58
2022/08/11 15:37:25;;;;;;;;;;;;;;;24.52;83.83;153822.41;1669771;86;20153;-58
2022/08/11 15:45:48;;;;;;;;;;;;;;;24.57;83.60;153835.48;1662839;86;22067;-58
2022/08/11 15:48:30;;;;;;;;;;;;;;;24.59;83.45;153840.72;1662792;86;20201;-58
2022/08/11 15:50:59;;;;;;;;;;;;;;;24.60;83.16;153843.34;1662571;85;20142;-58
2022/08/11 15:53:32;;;;;;;;;;;;;;;24.61;82.80;153844.67;1669330;86;20335;-58
2022/08/11 15:55:58;;;;;;;;;;;;;;;24.57;82.89;153835.48;1669402;86;20342;-58
2022/08/11 16:04:10;;;;;;;;;;;;;;;24.54;82.77;153827.64;1669464;86;20133;-59
2022/08/11 16:06:39;;;;;;;;;;;;;;;24.55;82.77;153830.25;1645910;86;20187;-59
2022/08/11 16:09:06;;;;;;;;;;;;;;;24.54;82.70;153827.64;1638878;87;20168;-59
2022/08/11 16:11:35;;;;;;;;;;;;;;;24.53;82.83;153823.69;1638789;87;21265;-60
2022/08/11 16:16:49;;;;;;;;;;;;;;;24.53;82.87;153823.69;1635713;87;20183;-59
2022/08/11 16:19:16;;;;;;;;;;;;;;;24.53;82.98;153825.03;1656119;85;20256;-72
2022/08/11 16:21:43;;;;;;;;;;;;;;;24.56;83.00;153832.87;1669186;85;20675;-72
2022/08/11 16:24:10;;;;;;;;;;;;;;;24.56;82.90;153832.87;1668074;85;21233;-72
2022/08/11 16:26:40;;;;;;;;;;;;;;;24.57;82.91;153835.48;1664019;85;20225;-72
2022/08/11 16:29:06;;;;;;;;;;;;;;;24.59;82.63;153839.44;1664274;85;20229;-71
2022/08/11 16:31:34;;;;;;;;;;;;;;;24.59;82.59;153840.72;1663980;86;20220;-72
2022/08/11 16:34:01;;;;;;;;;;;;;;;24.63;82.47;153848.58;1664650;85;20243;-71
2022/08/11 16:39:17;;;;;;;;;;;;;;;24.63;82.36;153849.91;1663952;85;20229;-71
2022/08/11 16:47:16;;;;;;;;;;;;;;;24.66;82.28;153857.77;1664205;85;20233;-71
2022/08/11 16:49:45;;;;;;;;;;;;;;;24.64;82.47;153851.19;1663997;85;21264;-71
2022/08/11 16:52:12;;;;;;;;;;;;;;;24.60;82.73;153843.34;1663952;85;20522;-71
2022/08/11 16:54:40;;;;;;;;;;;;;;;24.59;82.92;153839.44;1663904;85;20200;-71
2022/08/11 16:59:43;;;;;;;;;;;;;;;24.55;83.52;153830.25;1662619;85;20243;-72
2022/08/11 17:13:15;;;;;;;;;;;;;;;24.51;77.73;153818.45;1652065;86;20368;-72
2022/08/11 17:16:06;;;;;;;;;;;;;;;24.56;74.17;153831.59;1652488;85;21840;-72
2022/08/11 17:18:55;;;;;;;;;;;;;;;24.60;72.73;153843.34;1658683;86;20228;-72
2022/08/11 17:21:29;;;;;;;;;;;;;;;24.63;71.50;153848.58;1642550;86;20196;-71
2022/08/11 17:24:05;;;;;;;;;;;;;;;24.60;69.49;153843.34;1637241;86;20501;-72
2022/08/11 17:26:59;;;;;;;;;;;;;;;24.58;68.87;153836.83;1664145;85;20249;-71
2022/08/11 17:29:29;;;;;;;;;;;;;;;24.56;68.19;153831.59;1662810;86;21895;-71
2022/08/11 17:37:31;;;;;;;;;;;;;;;24.48;70.02;153810.61;1639918;86;20217;-71
2022/08/11 17:40:00;;;;;;;;;;;;;;;24.44;71.18;153802.75;1664133;86;20233;-71
2022/08/11 17:50:43;;;;;;;;;;;;;;;24.30;77.76;153767.41;1663674;86;20204;-71
2022/08/11 18:01:26;;;;;;;;;;;;;;;24.14;79.86;153725.50;1663785;86;20529;-71
2022/08/11 18:03:53;;;;;;;;;;;;;;;24.12;80.57;153720.25;1663878;86;20212;-70
2022/08/11 18:06:20;;;;;;;;;;;;;;;24.08;81.39;153709.80;1641975;85;20227;-72
